Latest Weather Observations for Lady Elliot Island

IDQ60801

Issued at 6:32 pm EST Friday 23 June 2017 (issued every 30 minutes, with the page automatically refreshed every 10 minutes)

About weather observations | Map of weather stations | Latest weather observations for QLD | Other Formats
Station Details ID: 039059 Name: LADY ELLIOT ISLAND Lat: -24.11 Lon: 152.72 Height: 3.6 m
Data from the previous 72 hours. | See also: Recent months at Lady Elliot Island
Date/Time
EST
Temp
°C
App
Temp
°C
Dew
Point
°C
Rel
Hum
%
Delta-T
°C
Wind Press
QNH
hPa
Press
MSL
hPa
Rain since
9am
mm
Dir  Spd
km/h
Gust
km/h
Spd
kts
Gust
kts
23/06:30pm 20.8 19.4 13.5 63 4.2 SSE 13 19 7 10 1019.4 1019.4 0.0
23/06:00pm 20.6 19.6 14.5 68 3.6 SSE 13 17 7 9 1018.9 1018.9 0.0
23/05:30pm 20.9 19.5 14.5 67 3.7 SSE 15 20 8 11 1018.6 1018.6 0.0
23/05:00pm 20.8 19.3 14.2 66 3.8 SSE 15 20 8 11 1018.4 1018.4 0.0
23/04:30pm 21.4 19.7 14.8 66 3.9 SSE 17 24 9 13 1018.2 1018.2 0.0
23/04:00pm 21.6 19.5 14.7 65 4.1 SSE 19 26 10 14 1018.1 1018.1 0.0
23/03:30pm 21.8 19.6 14.9 65 4.1 SSE 20 26 11 14 1018.1 1018.1 0.0
23/03:00pm 21.9 19.7 14.8 64 4.2 SSE 20 28 11 15 1018.3 1018.3 0.0
23/02:30pm 22.3 20.4 15.2 64 4.2 SSE 19 26 10 14 1018.5 1018.5 0.0
23/02:00pm 22.2 20.1 15.1 64 4.2 SSE 20 32 11 17 1018.8 1018.8 0.0
23/01:30pm 22.5 20.5 15.4 64 4.2 S 20 32 11 17 1019.1 1019.1 0.0
23/01:00pm 22.6 20.5 16.2 67 3.9 SSE 22 32 12 17 1019.4 1019.4 0.0
23/12:30pm 22.5 20.2 15.8 66 4.0 S 22 32 12 17 1019.9 1019.9 0.0
23/12:00pm 22.5 20.4 16.1 67 3.9 S 22 32 12 17 1020.2 1020.2 0.0
23/11:30am 22.7 20.6 16.3 67 3.9 S 22 35 12 19 1020.8 1020.8 0.0
23/11:00am 22.6 20.8 16.9 70 3.5 S 22 30 12 16 1021.3 1021.3 0.0
23/10:30am 22.7 20.8 16.7 69 3.7 S 22 32 12 17 1021.7 1021.7 0.0
23/10:00am 22.4 20.7 16.2 68 3.7 S 20 32 11 17 1021.9 1021.9 0.0
23/09:30am 22.2 20.3 15.8 67 3.8 S 20 30 11 16 1022.0 1022.0 0.0
23/09:00am 21.6 19.9 15.7 69 3.5 S 19 28 10 15 1021.9 1021.9 0.0
23/08:30am 21.6 19.5 14.7 65 4.1 S 19 28 10 15 1021.7 1021.7 0.0
23/08:00am 21.4 19.5 15.7 70 3.4 S 20 30 11 16 1021.4 1021.4 0.0
23/07:30am 20.8 18.8 14.9 69 3.5 S 19 28 10 15 1021.2 1021.2 0.0
23/07:00am 20.8 18.6 14.5 67 3.7 S 19 32 10 17 1020.9 1020.9 0.0
23/06:30am 21.0 18.6 13.7 63 4.2 SSE 19 28 10 15 1020.9 1020.9 0.0
23/06:00am 20.9 18.1 13.1 61 4.4 SSE 20 30 11 16 1020.7 1020.7 0.0
23/05:30am 20.8 18.1 13.5 63 4.2 SSE 20 28 11 15 1020.6 1020.6 0.0
23/05:00am 20.5 18.0 14.2 67 3.6 SSE 20 30 11 16 1020.4 1020.4 0.0
23/04:30am 20.5 17.8 13.5 64 4.0 SSE 20 32 11 17 1020.4 1020.4 0.0
23/04:00am 20.9 18.3 13.8 64 4.1 SSE 20 32 11 17 1020.5 1020.5 0.0
23/03:30am 20.9 17.8 12.3 58 4.8 SSE 20 30 11 16 1020.6 1020.6 0.0
23/03:00am 20.8 17.7 12.2 58 4.8 SSE 20 32 11 17 1020.6 1020.6 0.0
23/02:30am 20.8 17.7 12.2 58 4.8 SSE 20 30 11 16 1020.7 1020.7 0.0
23/02:00am 21.0 17.2 11.3 54 5.3 SSE 22 35 12 19 1020.8 1020.8 0.0
23/01:30am 21.1 16.5 12.3 57 5.0 SSE 28 41 15 22 1021.1 1021.1 0.0
23/01:00am 21.2 16.3 12.6 58 4.9 SSE 30 43 16 23 1021.3 1021.3 0.0
23/12:30am 21.4 17.1 13.1 59 4.7 SE 28 35 15 19 1021.6 1021.6 0.0
23/12:00am 21.0 16.5 13.9 64 4.1 SE 30 37 16 20 1021.8 1021.8 0.0
 
Date/Time
EST
Temp
°C
App
Temp
°C
Dew
Point
°C
Rel
Hum
%
Delta-T
°C
Wind Press
QNH
hPa
Press
MSL
hPa
Rain since
9am
mm
Dir  Spd
km/h
Gust
km/h
Spd
kts
Gust
kts
22/11:30pm 21.1 16.8 14.5 66 3.9 SE 30 39 16 21 1022.0 1022.0 0.0
22/11:00pm 21.2 16.4 14.1 64 4.1 SE 32 39 17 21 1022.1 1022.1 0.0
22/10:30pm 21.4 17.7 15.0 67 3.8 SE 28 41 15 22 1022.3 1022.3 0.0
22/10:00pm 21.4 17.5 15.5 69 3.5 SE 30 39 16 21 1022.3 1022.3 0.0
22/09:30pm 21.3 18.7 15.8 71 3.3 SSE 24 35 13 19 1022.4 1022.4 0.0
22/09:00pm 21.3 18.6 15.6 70 3.4 SSE 24 37 13 20 1022.4 1022.4 0.0
22/08:30pm 21.2 18.4 16.4 74 2.9 SSE 26 35 14 19 1022.4 1022.4 0.0
22/08:00pm 21.2 18.3 16.0 72 3.1 SE 26 37 14 20 1022.5 1022.5 0.0
22/07:30pm 21.2 18.8 16.4 74 2.9 SSE 24 35 13 19 1022.4 1022.4 0.0
22/07:00pm 21.5 17.3 15.6 69 3.5 SE 32 43 17 23 1022.2 1022.2 0.0
22/06:30pm 21.4 17.5 15.5 69 3.5 SE 30 39 16 21 1021.9 1021.9 0.0
22/06:00pm 21.5 17.8 16.0 71 3.3 SE 30 37 16 20 1021.7 1021.7 0.0
22/05:30pm 21.2 17.8 15.7 71 3.3 SSE 28 41 15 22 1021.4 1021.4 0.0
22/05:00pm 21.3 18.2 16.5 74 2.9 SSE 28 39 15 21 1021.2 1021.2 0.0
22/04:30pm 21.6 19.3 16.6 73 3.0 SSE 24 37 13 20 1020.9 1020.9 0.0
22/04:00pm 22.4 19.7 15.5 65 4.1 SE 24 35 13 19 1020.7 1020.7 0.0
22/03:30pm 22.2 20.5 17.1 73 3.1 SSE 22 32 12 17 1020.7 1020.7 0.0
22/03:00pm 21.7 20.0 17.3 76 2.7 S 22 32 12 17 1020.7 1020.7 0.0
22/02:30pm 22.3 20.5 17.0 72 3.2 SSE 22 32 12 17 1020.7 1020.7 0.0
22/02:00pm 22.8 21.1 17.3 71 3.4 SSE 22 32 12 17 1020.9 1020.9 0.0
22/01:30pm 22.5 20.9 17.4 73 3.1 SSE 22 32 12 17 1021.2 1021.2 0.0
22/01:00pm 22.4 21.2 17.5 74 3.0 S 20 32 11 17 1021.5 1021.5 0.0
22/12:30pm 21.8 20.0 17.0 74 2.9 S 22 35 12 19 1021.9 1021.9 0.0
22/12:00pm 21.9 20.0 16.6 72 3.2 S 22 35 12 19 1022.4 1022.4 0.0
22/11:30am 21.9 19.7 16.8 73 3.1 S 24 33 13 18 1022.7 1022.7 0.0
22/11:00am 22.1 20.0 17.2 74 3.0 S 24 35 13 19 1023.0 1023.0 0.0
22/10:30am 21.9 19.9 17.3 75 2.8 S 24 33 13 18 1023.3 1023.3 0.0
22/10:00am 22.1 20.5 17.5 75 2.8 S 22 35 12 19 1023.4 1023.4 0.0
22/09:30am 21.5 19.2 16.7 74 2.9 S 24 35 13 19 1023.5 1023.5 0.0
22/09:00am 21.3 19.3 16.5 74 2.9 S 22 32 12 17 1023.6 1023.6 0.0
22/08:30am 21.1 19.2 16.7 76 2.7 S 22 30 12 16 1023.2 1023.2 0.0
22/08:00am 20.4 18.5 16.6 79 2.3 S 22 32 12 17 1023.0 1023.0 0.0
22/07:30am 20.2 18.1 16.2 78 2.4 S 22 33 12 18 1022.7 1022.7 0.0
22/07:00am 20.2 18.3 16.6 80 2.2 S 22 35 12 19 1022.5 1022.5 0.0
22/06:30am 20.2 18.2 16.4 79 2.3 S 22 33 12 18 1022.3 1022.3 0.0
22/06:00am 20.0 18.1 15.8 77 2.5 S 20 30 11 16 1022.0 1022.0 0.0
22/05:30am 20.0 18.3 15.8 77 2.5 S 19 28 10 15 1021.7 1021.7 0.0
22/05:00am 19.8 18.0 15.9 78 2.3 S 20 32 11 17 1021.4 1021.4 0.0
22/04:30am 19.9 17.9 15.5 76 2.6 S 20 32 11 17 1021.2 1021.2 0.0
22/04:00am 19.9 17.8 15.1 74 2.8 SSE 20 30 11 16 1021.2 1021.2 0.0
22/03:30am 19.9 17.8 15.3 75 2.7 SSE 20 30 11 16 1021.3 1021.3 0.0
22/03:00am 19.9 17.8 15.1 74 2.8 SSE 20 33 11 18 1021.1 1021.1 0.0
22/02:30am 20.0 17.1 15.0 73 2.9 SSE 24 33 13 18 1021.1 1021.1 0.0
22/02:00am 20.3 16.1 13.5 65 3.9 SSE 28 43 15 23 1021.4 1021.4 0.0
22/01:30am 20.4 17.5 14.1 67 3.6 SSE 22 33 12 18 1021.7 1021.7 0.0
22/01:00am 20.5 17.5 13.7 65 3.9 S 22 35 12 19 1021.8 1021.8 0.0
22/12:30am 20.5 17.0 13.5 64 4.0 S 24 35 13 19 1022.2 1022.2 0.0
22/12:00am 20.7 17.7 13.6 64 4.1 S 22 33 12 18 1022.5 1022.5 0.0
 
Date/Time
EST
Temp
°C
App
Temp
°C
Dew
Point
°C
Rel
Hum
%
Delta-T
°C
Wind Press
QNH
hPa
Press
MSL
hPa
Rain since
9am
mm
Dir  Spd
km/h
Gust
km/h
Spd
kts
Gust
kts
21/11:30pm 20.7 17.1 12.9 61 4.4 S 24 35 13 19 1022.7 1022.7 0.0
21/11:00pm 20.8 16.9 10.9 53 5.4 SSE 22 32 12 17 1022.8 1022.8 0.0
21/10:30pm 21.0 17.5 12.2 57 4.9 SSE 22 33 12 18 1022.7 1022.7 0.0
21/10:00pm 20.8 16.6 11.2 54 5.3 SSE 24 33 13 18 1022.7 1022.7 0.0
21/09:30pm 20.9 16.5 10.4 51 5.7 SE 24 37 13 20 1022.7 1022.7 0.0
21/09:00pm 20.7 16.4 11.9 57 4.9 SSE 26 39 14 21 1022.7 1022.7 0.0
21/08:30pm 20.5 16.0 12.7 61 4.4 SE 28 39 15 21 1022.7 1022.7 0.0
21/08:00pm 20.7 17.0 12.7 60 4.5 SSE 24 35 13 19 1022.6 1022.6 0.0
21/07:30pm 20.6 16.5 11.5 56 5.0 SSE 24 33 13 18 1022.4 1022.4 0.0
21/07:00pm 20.8 17.7 14.5 67 3.7 SSE 24 35 13 19 1022.2 1022.2 0.0
21/06:30pm 20.8 17.4 12.5 59 4.7 SSE 22 33 12 18 1021.8 1021.8 0.0
21/06:00pm 20.9 17.5 11.3 54 5.3 S 20 28 11 15 1021.6 1021.6 0.0
21/05:30pm 20.9 17.5 11.3 54 5.3 S 20 30 11 16 1021.1 1021.1 0.0
21/05:00pm 20.8 17.4 11.4 55 5.2 S 20 32 11 17 1020.8 1020.8 0.0
21/04:30pm 21.2 18.0 11.8 55 5.2 S 20 28 11 15 1020.6 1020.6 0.0
21/04:00pm 21.4 17.8 12.0 55 5.3 S 22 30 12 16 1020.3 1020.3 0.0
21/03:30pm 21.8 18.8 12.6 56 5.2 S 20 30 11 16 1020.2 1020.2 0.0
21/03:00pm 21.9 18.8 13.3 58 4.9 S 22 30 12 16 1020.1 1020.1 0.0
21/02:30pm 21.9 18.5 13.8 60 4.7 S 24 33 13 18 1020.0 1020.0 0.0
21/02:00pm 21.7 18.6 14.4 63 4.3 S 24 33 13 18 1020.3 1020.3 0.0
21/01:30pm 21.9 19.3 15.0 65 4.1 S 22 32 12 17 1020.4 1020.4 0.0
21/01:00pm 21.5 18.4 14.6 65 4.0 S 24 35 13 19 1020.5 1020.5 0.0
21/12:30pm 22.1 19.2 15.0 64 4.2 S 24 35 13 19 1020.8 1020.8 0.0
21/12:00pm 21.8 18.6 15.2 66 3.9 S 26 37 14 20 1021.1 1021.1 0.0
21/11:30am 21.7 18.3 14.8 65 4.1 S 26 37 14 20 1021.4 1021.4 0.0
21/11:00am 21.4 17.6 14.8 66 3.9 S 28 39 15 21 1021.6 1021.6 0.0
21/10:30am 21.1 17.3 14.7 67 3.8 S 28 37 15 20 1021.9 1021.9 0.0
21/10:00am 21.0 17.2 14.6 67 3.7 S 28 39 15 21 1022.2 1022.2 0.0
21/09:30am 20.8 17.1 14.9 69 3.5 S 28 39 15 21 1022.1 1022.1 0.0
21/09:00am 20.7 17.4 15.0 70 3.3 S 26 37 14 20 1022.3 1022.3 0.0
21/08:30am 20.7 17.6 15.5 72 3.1 S 26 37 14 20 1022.0 1022.0 0.0
21/08:00am 20.4 17.2 15.2 72 3.1 S 26 43 14 23 1021.6 1021.6 0.0
21/07:30am 20.2 16.9 15.0 72 3.1 S 26 39 14 21 1021.2 1021.2 0.0
21/07:00am 19.9 16.8 15.5 76 2.6 SSE 26 37 14 20 1020.9 1020.9 0.0
21/06:30am 19.8 16.4 15.7 77 2.4 SSE 28 39 15 21 1020.5 1020.5 0.0
21/06:00am 19.7 16.6 15.6 77 2.4 S 26 35 14 19 1020.3 1020.3 0.0
21/05:30am 19.9 16.4 15.5 76 2.6 S 28 44 15 24 1020.1 1020.1 0.0
21/05:00am 19.8 16.6 15.4 76 2.6 SSE 26 37 14 20 1020.0 1020.0 0.0
21/04:30am 19.7 16.6 15.6 77 2.4 S 26 39 14 21 1019.8 1019.8 0.0
21/04:00am 19.9 16.5 15.7 77 2.5 S 28 41 15 22 1019.8 1019.8 0.0
21/03:30am 19.6 16.2 15.7 78 2.3 S 28 39 15 21 1020.0 1020.0 0.0
21/03:00am 19.6 16.2 15.9 79 2.2 S 28 41 15 22 1020.0 1020.0 0.0
21/02:30am 19.5 16.1 15.8 79 2.2 S 28 39 15 21 1020.1 1020.1 0.0
21/02:00am 19.5 16.4 15.6 78 2.3 S 26 39 14 21 1020.4 1020.4 0.0
21/01:32am 19.7 16.2 15.4 76 2.5 S 28 46 15 25 1020.5 1020.5 0.0
21/01:30am 19.6 16.0 15.3 76 2.5 S 28 39 15 21 1020.6 1020.6 0.0
21/01:00am 19.7 16.0 14.9 74 2.8 S 28 43 15 23 1020.8 1020.8 0.0
21/12:30am 19.8 15.7 15.0 74 2.8 S 30 41 16 22 1020.9 1020.9 0.0
21/12:00am 19.8 16.4 14.8 73 2.9 S 26 39 14 21 1020.9 1020.9 0.0
 
Date/Time
EST
Temp
°C
App
Temp
°C
Dew
Point
°C
Rel
Hum
%
Delta-T
°C
Wind Press
QNH
hPa
Press
MSL
hPa
Rain since
9am
mm
Dir  Spd
km/h
Gust
km/h
Spd
kts
Gust
kts
20/11:30pm 20.1 16.4 14.9 72 3.0 S 28 39 15 21 1021.1 1021.1 0.0
20/11:00pm 20.3 16.1 14.7 70 3.3 S 30 41 16 22 1021.0 1021.0 0.0
20/10:34pm 20.5 16.7 14.6 69 3.4 S 28 46 15 25 1020.9 1020.9 0.0
20/10:30pm 20.5 16.6 14.4 68 3.6 S 28 43 15 23 1020.9 1020.9 0.0
20/10:00pm 20.6 15.9 14.3 67 3.7 S 32 46 17 25 1021.0 1021.0 0.0
20/09:30pm 20.6 16.3 14.3 67 3.7 S 30 46 16 25 1021.0 1021.0 0.0
20/09:00pm 20.7 15.9 13.9 65 3.9 S 32 44 17 24 1020.8 1020.8 0.0
20/08:30pm 20.9 16.0 13.8 64 4.1 S 32 48 17 26 1020.7 1020.7 0.0
20/08:25pm 21.0 16.0 13.4 62 4.4 S 32 50 17 27 1020.7 1020.7 0.0
20/08:00pm 20.9 16.6 14.5 67 3.7 S 30 44 16 24 1020.6 1020.6 0.0
20/07:30pm 21.0 16.3 14.9 68 3.6 SSE 33 50 18 27 1020.3 1020.3 0.0
20/07:24pm 21.1 16.7 15.2 69 3.5 SSE 32 50 17 27 1020.2 1020.2 0.0
20/07:00pm 21.1 16.3 14.7 67 3.7 SSE 33 48 18 26 1020.0 1020.0 0.0
20/06:44pm 21.1 16.6 15.4 70 3.4 SSE 33 52 18 28 1019.8 1019.8 0.0

Other Formats:

Comma delimited format used in spreadsheet applications
http://www.bom.gov.au/fwo/IDQ60801/IDQ60801.94388.axf

JavaScript Object Notation format (JSON) in row-major order
http://www.bom.gov.au/fwo/IDQ60801/IDQ60801.94388.json